createdAt,value
2023-04-19T00:03:40.067Z,8.63
2023-04-19T00:08:42.360Z,8.77
2023-04-19T00:13:43.894Z,9.02
2023-04-19T00:18:46.790Z,9.02
2023-04-19T00:23:48.347Z,8.90
2023-04-19T00:28:49.760Z,8.75
2023-04-19T00:33:51.264Z,9.27
2023-04-19T00:38:52.780Z,9.48
2023-04-19T00:43:54.284Z,8.88
2023-04-19T00:48:55.866Z,8.40
2023-04-19T00:53:58.258Z,9.07
2023-04-19T00:58:59.841Z,8.77
2023-04-19T01:04:02.233Z,8.02
2023-04-19T01:09:03.931Z,8.07
2023-04-19T01:14:05.409Z,8.00
2023-04-19T01:19:06.964Z,8.93
2023-04-19T01:24:08.681Z,8.52
2023-04-19T01:29:10.149Z,8.68
2023-04-19T01:34:11.629Z,9.18
2023-04-19T01:39:13.053Z,8.10
2023-04-19T01:44:14.723Z,8.20
2023-04-19T01:49:16.465Z,8.98
2023-04-19T01:54:18.173Z,7.97
2023-04-19T01:59:19.689Z,8.23
2023-04-19T02:04:22.207Z,7.50
2023-04-19T02:09:23.822Z,7.07
2023-04-19T02:14:26.924Z,7.60
2023-04-19T02:19:28.353Z,7.30
2023-04-19T02:24:29.847Z,7.70
2023-04-19T02:29:31.272Z,6.82
2023-04-19T02:34:33.117Z,7.20
2023-04-19T02:39:34.526Z,6.78
2023-04-19T02:44:35.999Z,6.88
2023-04-19T02:49:41.391Z,6.72
2023-04-19T02:54:42.822Z,6.53
2023-04-19T02:59:44.317Z,6.22
2023-04-19T03:04:47.315Z,6.65
2023-04-19T03:09:48.698Z,5.90
2023-04-19T03:14:50.293Z,6.00
2023-04-19T03:19:52.666Z,6.28
2023-04-19T03:24:54.165Z,5.82
2023-04-19T03:29:56.283Z,6.15
2023-04-19T03:34:57.744Z,5.88
2023-04-19T03:39:59.284Z,6.47
2023-04-19T03:45:00.703Z,5.70
2023-04-19T03:50:02.185Z,6.53
2023-04-19T03:55:03.728Z,5.53
2023-04-19T04:00:08.842Z,6.40
2023-04-19T04:05:10.438Z,6.53
2023-04-19T04:10:12.098Z,6.47
2023-04-19T04:15:13.557Z,6.13
2023-04-19T04:20:16.562Z,6.30
2023-04-19T04:25:18.080Z,6.38
2023-04-19T04:30:19.533Z,5.93
2023-04-19T04:35:21.322Z,5.95
2023-04-19T04:40:23.048Z,6.20
2023-04-19T04:45:24.609Z,5.72
2023-04-19T04:50:26.125Z,5.72
2023-04-19T04:55:27.639Z,6.20
2023-04-19T05:00:29.102Z,6.50
2023-04-19T05:05:30.656Z,6.18
2023-04-19T05:10:32.171Z,6.20
2023-04-19T05:15:34.687Z,5.53
2023-04-19T05:20:36.323Z,6.10
2023-04-19T05:25:37.866Z,6.45
2023-04-19T05:30:39.373Z,5.97
2023-04-19T05:35:41.017Z,5.45
2023-04-19T05:40:42.493Z,5.50
2023-04-19T05:45:44.019Z,5.53
2023-04-19T05:50:45.606Z,5.80
2023-04-19T05:55:49.402Z,5.72
2023-04-19T06:00:51.636Z,5.50
2023-04-19T06:05:53.098Z,5.80
2023-04-19T06:11:01.929Z,5.20
2023-04-19T06:16:07.993Z,5.55
2023-04-19T06:21:09.493Z,4.85
2023-04-19T06:26:10.988Z,4.88
2023-04-19T06:31:12.505Z,4.10
2023-04-19T06:36:14.063Z,5.10
2023-04-19T06:41:15.662Z,4.53
2023-04-19T06:46:17.308Z,4.55
2023-04-19T06:51:18.868Z,4.20
2023-04-19T06:56:40.167Z,3.90
2023-04-19T07:01:41.906Z,4.22
2023-04-19T07:06:43.398Z,4.75
2023-04-19T07:11:44.824Z,4.10
2023-04-19T07:16:46.779Z,4.03
2023-04-19T07:21:48.643Z,3.88
2023-04-19T07:26:50.159Z,3.97
2023-04-19T07:31:52.077Z,3.25
2023-04-19T07:36:53.574Z,3.10
2023-04-19T07:41:55.028Z,2.88
2023-04-19T07:46:56.717Z,2.97
2023-04-19T07:51:58.340Z,2.80
2023-04-19T07:56:59.801Z,2.90
2023-04-19T08:02:01.459Z,3.05
2023-04-19T08:07:04.313Z,3.15
2023-04-19T08:12:05.902Z,3.15
2023-04-19T08:17:23.333Z,2.60
2023-04-19T08:22:26.397Z,3.03
2023-04-19T08:27:27.990Z,2.53
2023-04-19T08:32:29.623Z,3.20
2023-04-19T08:37:31.115Z,2.85
2023-04-19T08:42:36.841Z,2.72
2023-04-19T08:52:54.895Z,2.65
2023-04-19T08:57:58.856Z,2.22
2023-04-19T09:03:00.711Z,2.60
2023-04-19T09:08:23.554Z,2.20
2023-04-19T09:13:25.495Z,1.95
2023-04-19T09:18:28.338Z,1.95
2023-04-19T09:23:32.089Z,1.92
2023-04-19T09:28:33.731Z,1.73
2023-04-19T09:33:36.910Z,1.98
2023-04-19T09:38:48.951Z,1.83
2023-04-19T09:48:55.200Z,2.00
2023-04-19T09:53:56.672Z,2.00
2023-04-19T09:59:04.952Z,2.15
2023-04-19T10:04:37.728Z,1.90
2023-04-19T10:09:52.901Z,2.22
2023-04-19T10:14:58.829Z,2.50
2023-04-19T10:20:06.931Z,2.13
2023-04-19T10:25:13.192Z,2.30
2023-04-19T10:30:21.928Z,2.60
2023-04-19T10:35:23.560Z,2.90
2023-04-19T10:40:43.849Z,2.50
2023-04-19T10:45:46.392Z,2.53
2023-04-19T10:50:59.933Z,2.20
2023-04-19T10:56:01.493Z,2.33
2023-04-19T11:01:31.945Z,2.33
2023-04-19T11:06:33.925Z,2.50
2023-04-19T11:11:36.974Z,2.20
2023-04-19T11:16:45.522Z,1.98
2023-04-19T11:21:48.339Z,2.05
2023-04-19T11:26:49.847Z,2.40
2023-04-19T11:31:51.715Z,2.17
2023-04-19T11:36:56.634Z,1.90
2023-04-19T11:41:58.631Z,2.20
2023-04-19T11:47:04.530Z,2.08
2023-04-19T11:52:06.448Z,2.17
2023-04-19T11:57:08.647Z,2.65
2023-04-19T12:02:11.367Z,2.20
2023-04-19T12:07:12.949Z,1.77
2023-04-19T12:12:14.444Z,1.88
2023-04-19T12:17:16.501Z,1.80
2023-04-19T12:22:22.363Z,2.10
2023-04-19T12:27:25.755Z,1.90
2023-04-19T12:32:28.538Z,1.73
2023-04-19T12:37:30.084Z,2.08
2023-04-19T12:42:31.576Z,1.65
2023-04-19T12:47:33.853Z,1.75
2023-04-19T12:52:35.646Z,1.55
2023-04-19T12:57:37.124Z,1.58
2023-04-19T13:02:39.113Z,1.70
2023-04-19T13:07:41.043Z,1.50
2023-04-19T13:12:42.563Z,1.70
2023-04-19T13:17:44.641Z,1.80
2023-04-19T13:22:46.386Z,1.85
2023-04-19T13:27:47.898Z,1.55
2023-04-19T13:32:49.412Z,1.55
2023-04-19T13:37:51.376Z,1.70
2023-04-19T13:42:54.351Z,1.50
2023-04-19T13:47:55.924Z,1.60
2023-04-19T13:52:58.042Z,1.77
2023-04-19T13:57:59.763Z,2.00
2023-04-19T14:03:01.654Z,2.28
2023-04-19T14:08:03.344Z,2.00
2023-04-19T14:13:05.557Z,2.40
2023-04-19T14:18:07.160Z,2.80
2023-04-19T14:23:08.606Z,2.40
2023-04-19T14:28:12.639Z,2.78
2023-04-19T14:33:14.160Z,2.53
2023-04-19T14:38:16.612Z,2.75
2023-04-19T14:43:18.228Z,3.35
2023-04-19T14:48:22.071Z,2.92
2023-04-19T14:53:23.913Z,3.28
2023-04-19T14:58:25.478Z,2.83
2023-04-19T15:03:27.132Z,3.10
2023-04-19T15:08:30.726Z,3.72
2023-04-19T15:13:33.906Z,3.10
2023-04-19T15:18:36.050Z,3.97
2023-04-19T15:23:37.583Z,3.08
2023-04-19T15:28:39.271Z,3.00
2023-04-19T15:33:40.908Z,3.10
2023-04-19T15:38:43.946Z,2.85
2023-04-19T15:43:45.738Z,3.28
2023-04-19T15:48:48.519Z,2.88
2023-04-19T15:53:50.283Z,2.47
2023-04-19T15:58:51.736Z,2.60
2023-04-19T16:03:53.573Z,2.65
2023-04-19T16:08:57.574Z,3.03
2023-04-19T16:13:59.554Z,3.28
2023-04-19T16:19:01.832Z,3.13
2023-04-19T16:24:03.457Z,3.45
2023-04-19T16:29:04.951Z,3.10
2023-04-19T16:34:06.597Z,3.40
2023-04-19T16:39:08.523Z,3.10
2023-04-19T16:44:11.470Z,2.90
2023-04-19T16:49:13.031Z,2.85
2023-04-19T16:54:14.684Z,2.78
2023-04-19T16:59:16.551Z,3.20
2023-04-19T17:04:18.734Z,2.65
2023-04-19T17:09:20.264Z,2.50
2023-04-19T17:14:21.921Z,2.55
2023-04-19T17:19:23.371Z,2.35
2023-04-19T17:24:25.018Z,2.80
2023-04-19T17:29:27.116Z,2.33
2023-04-19T17:34:36.103Z,2.85
2023-04-19T17:39:38.422Z,2.58
2023-04-19T17:44:40.273Z,2.10
2023-04-19T17:49:45.455Z,2.30
2023-04-19T17:54:48.108Z,2.70
2023-04-19T17:59:49.564Z,2.33
2023-04-19T18:04:51.581Z,2.67
2023-04-19T18:09:53.138Z,2.50
2023-04-19T18:14:54.868Z,2.50
2023-04-19T18:19:56.423Z,2.35
2023-04-19T18:24:58.022Z,2.50
2023-04-19T18:30:04.151Z,2.20
2023-04-19T18:35:08.952Z,2.65
2023-04-19T18:40:11.078Z,2.75
2023-04-19T18:45:12.676Z,2.42
2023-04-19T18:50:18.723Z,2.33
2023-04-19T18:55:21.048Z,2.38
2023-04-19T19:00:22.666Z,2.45
2023-04-19T19:05:24.443Z,2.58
2023-04-19T19:10:57.128Z,2.80
2023-04-19T19:15:47.653Z,2.70
2023-04-19T19:20:51.340Z,2.90
2023-04-19T19:25:53.715Z,3.22
2023-04-19T19:30:55.359Z,2.92
2023-04-19T19:35:57.677Z,2.92
2023-04-19T19:41:48.917Z,2.45
2023-04-19T19:46:22.853Z,2.53
2023-04-19T19:51:52.456Z,2.72
2023-04-19T19:57:14.770Z,2.85
2023-04-19T20:02:08.021Z,3.13
2023-04-19T20:12:16.742Z,2.47
2023-04-19T20:17:19.768Z,2.70
2023-04-19T20:22:21.297Z,3.05
2023-04-19T20:27:22.902Z,2.58
2023-04-19T20:32:24.679Z,3.05
2023-04-19T20:37:27.286Z,3.28
2023-04-19T20:42:28.782Z,2.90
2023-04-19T20:47:32.068Z,2.80
2023-04-19T20:52:33.892Z,2.90
2023-04-19T20:57:35.435Z,2.85
2023-04-19T21:02:37.158Z,2.80
2023-04-19T21:07:38.733Z,2.80
2023-04-19T21:12:40.850Z,2.72
2023-04-19T21:17:42.723Z,2.90
2023-04-19T21:22:45.236Z,2.45
2023-04-19T21:27:47.698Z,2.80
2023-04-19T21:32:49.473Z,3.00
2023-04-19T21:37:51.014Z,2.72
2023-04-19T21:42:52.653Z,2.97
2023-04-19T21:47:54.240Z,2.78
2023-04-19T21:52:56.305Z,2.72
2023-04-19T21:57:58.203Z,2.72
2023-04-19T22:02:59.878Z,3.08
2023-04-19T22:08:01.910Z,2.70
2023-04-19T22:13:04.044Z,3.00
2023-04-19T22:18:05.717Z,2.80
2023-04-19T22:23:07.300Z,2.95
2023-04-19T22:28:08.783Z,3.13
2023-04-19T22:33:10.316Z,2.70
2023-04-19T22:38:11.864Z,2.40
2023-04-19T22:43:13.380Z,2.95
2023-04-19T22:48:15.024Z,2.72
2023-04-19T22:53:16.654Z,2.50
2023-04-19T22:58:18.837Z,2.63
2023-04-19T23:03:20.485Z,2.80
2023-04-19T23:08:21.894Z,3.00
2023-04-19T23:13:23.286Z,2.58
2023-04-19T23:18:24.975Z,2.80
2023-04-19T23:23:26.985Z,3.03
2023-04-19T23:28:28.661Z,2.88
2023-04-19T23:33:30.111Z,2.83
2023-04-19T23:38:31.645Z,2.80
2023-04-19T23:43:33.184Z,2.80
2023-04-19T23:48:34.910Z,2.80
2023-04-19T23:53:36.565Z,2.70
2023-04-19T23:58:37.983Z,2.92
